sensor_id;sensor_type;location;lat;lon;timestamp;P1;durP1;ratioP1;P2;durP2;ratioP2
45842;SDS011;31563;51.744;8.252;2023-02-28T00:01:09;0.73;;;0.50;;
45842;SDS011;31563;51.744;8.252;2023-02-28T00:03:38;1.25;;;0.70;;
45842;SDS011;31563;51.744;8.252;2023-02-28T00:06:07;1.48;;;1.17;;
45842;SDS011;31563;51.744;8.252;2023-02-28T00:08:37;1.05;;;0.73;;
45842;SDS011;31563;51.744;8.252;2023-02-28T00:11:07;1.73;;;0.98;;
45842;SDS011;31563;51.744;8.252;2023-02-28T00:13:37;1.48;;;0.80;;
45842;SDS011;31563;51.744;8.252;2023-02-28T00:16:08;1.63;;;0.80;;
45842;SDS011;31563;51.744;8.252;2023-02-28T00:18:39;1.13;;;0.70;;
45842;SDS011;31563;51.744;8.252;2023-02-28T00:23:36;1.25;;;0.60;;
45842;SDS011;31563;51.744;8.252;2023-02-28T00:26:04;1.67;;;0.80;;
45842;SDS011;31563;51.744;8.252;2023-02-28T00:28:33;1.08;;;0.47;;
45842;SDS011;31563;51.744;8.252;2023-02-28T00:31:01;1.33;;;0.75;;
45842;SDS011;31563;51.744;8.252;2023-02-28T00:33:29;0.70;;;0.60;;
45842;SDS011;31563;51.744;8.252;2023-02-28T00:36:02;1.05;;;0.50;;
45842;SDS011;31563;51.744;8.252;2023-02-28T00:38:32;0.85;;;0.50;;
45842;SDS011;31563;51.744;8.252;2023-02-28T00:41:00;1.42;;;0.80;;
45842;SDS011;31563;51.744;8.252;2023-02-28T00:43:31;1.40;;;0.60;;
45842;SDS011;31563;51.744;8.252;2023-02-28T00:46:00;0.70;;;0.52;;
45842;SDS011;31563;51.744;8.252;2023-02-28T00:48:29;0.85;;;0.50;;
45842;SDS011;31563;51.744;8.252;2023-02-28T00:50:57;1.25;;;0.70;;
45842;SDS011;31563;51.744;8.252;2023-02-28T00:53:27;2.35;;;0.68;;
45842;SDS011;31563;51.744;8.252;2023-02-28T00:55:56;1.25;;;0.60;;
45842;SDS011;31563;51.744;8.252;2023-02-28T00:58:24;0.85;;;0.57;;
45842;SDS011;31563;51.744;8.252;2023-02-28T01:00:53;0.95;;;0.75;;
45842;SDS011;31563;51.744;8.252;2023-02-28T01:03:21;1.40;;;0.90;;
45842;SDS011;31563;51.744;8.252;2023-02-28T01:05:50;1.00;;;0.70;;
45842;SDS011;31563;51.744;8.252;2023-02-28T01:08:19;0.67;;;0.43;;
45842;SDS011;31563;51.744;8.252;2023-02-28T01:10:48;0.90;;;0.52;;
45842;SDS011;31563;51.744;8.252;2023-02-28T01:13:17;1.33;;;0.70;;
45842;SDS011;31563;51.744;8.252;2023-02-28T01:15:48;0.85;;;0.45;;
45842;SDS011;31563;51.744;8.252;2023-02-28T01:18:18;0.85;;;0.60;;
45842;SDS011;31563;51.744;8.252;2023-02-28T01:20:47;1.42;;;0.60;;
45842;SDS011;31563;51.744;8.252;2023-02-28T01:23:18;1.40;;;0.70;;
45842;SDS011;31563;51.744;8.252;2023-02-28T01:25:46;1.45;;;0.80;;
45842;SDS011;31563;51.744;8.252;2023-02-28T01:28:15;2.22;;;0.60;;
45842;SDS011;31563;51.744;8.252;2023-02-28T01:30:47;1.30;;;0.50;;
45842;SDS011;31563;51.744;8.252;2023-02-28T01:33:15;0.90;;;0.50;;
45842;SDS011;31563;51.744;8.252;2023-02-28T01:35:44;1.50;;;0.60;;
45842;SDS011;31563;51.744;8.252;2023-02-28T01:38:12;0.80;;;0.50;;
45842;SDS011;31563;51.744;8.252;2023-02-28T01:40:48;1.55;;;0.77;;
45842;SDS011;31563;51.744;8.252;2023-02-28T01:43:19;0.93;;;0.52;;
45842;SDS011;31563;51.744;8.252;2023-02-28T01:45:50;1.13;;;0.80;;
45842;SDS011;31563;51.744;8.252;2023-02-28T01:48:19;1.30;;;0.80;;
45842;SDS011;31563;51.744;8.252;2023-02-28T01:50:52;1.23;;;0.63;;
45842;SDS011;31563;51.744;8.252;2023-02-28T01:53:23;0.60;;;0.43;;
45842;SDS011;31563;51.744;8.252;2023-02-28T01:55:57;0.73;;;0.57;;
45842;SDS011;31563;51.744;8.252;2023-02-28T01:58:27;1.35;;;0.57;;
45842;SDS011;31563;51.744;8.252;2023-02-28T02:00:55;0.70;;;0.50;;
45842;SDS011;31563;51.744;8.252;2023-02-28T02:03:23;0.98;;;0.60;;
45842;SDS011;31563;51.744;8.252;2023-02-28T02:05:52;0.70;;;0.50;;
45842;SDS011;31563;51.744;8.252;2023-02-28T02:08:21;0.90;;;0.50;;
45842;SDS011;31563;51.744;8.252;2023-02-28T02:10:51;0.88;;;0.50;;
45842;SDS011;31563;51.744;8.252;2023-02-28T02:13:29;1.10;;;0.70;;
45842;SDS011;31563;51.744;8.252;2023-02-28T02:16:11;0.93;;;0.60;;
45842;SDS011;31563;51.744;8.252;2023-02-28T02:18:52;0.75;;;0.57;;
45842;SDS011;31563;51.744;8.252;2023-02-28T02:21:36;1.17;;;0.55;;
45842;SDS011;31563;51.744;8.252;2023-02-28T02:36:45;0.68;;;0.50;;
45842;SDS011;31563;51.744;8.252;2023-02-28T02:39:19;1.33;;;0.50;;
45842;SDS011;31563;51.744;8.252;2023-02-28T02:41:58;0.77;;;0.50;;
45842;SDS011;31563;51.744;8.252;2023-02-28T02:44:30;1.00;;;0.55;;
45842;SDS011;31563;51.744;8.252;2023-02-28T02:47:03;0.90;;;0.60;;
45842;SDS011;31563;51.744;8.252;2023-02-28T02:49:37;0.90;;;0.40;;
45842;SDS011;31563;51.744;8.252;2023-02-28T02:52:08;1.38;;;0.60;;
45842;SDS011;31563;51.744;8.252;2023-02-28T02:54:40;0.98;;;0.60;;
45842;SDS011;31563;51.744;8.252;2023-02-28T02:57:11;1.40;;;0.80;;
45842;SDS011;31563;51.744;8.252;2023-02-28T02:59:43;1.65;;;0.65;;
45842;SDS011;31563;51.744;8.252;2023-02-28T03:02:12;0.90;;;0.60;;
45842;SDS011;31563;51.744;8.252;2023-02-28T03:04:47;0.70;;;0.50;;
45842;SDS011;31563;51.744;8.252;2023-02-28T03:07:19;0.85;;;0.60;;
45842;SDS011;31563;51.744;8.252;2023-02-28T03:09:50;0.65;;;0.47;;
45842;SDS011;31563;51.744;8.252;2023-02-28T03:12:19;1.00;;;0.60;;
45842;SDS011;31563;51.744;8.252;2023-02-28T03:17:36;0.60;;;0.40;;
45842;SDS011;31563;51.744;8.252;2023-02-28T03:20:19;0.80;;;0.40;;
45842;SDS011;31563;51.744;8.252;2023-02-28T03:25:31;1.30;;;0.50;;
45842;SDS011;31563;51.744;8.252;2023-02-28T03:28:07;0.88;;;0.40;;
45842;SDS011;31563;51.744;8.252;2023-02-28T03:30:42;1.38;;;0.80;;
45842;SDS011;31563;51.744;8.252;2023-02-28T03:33:18;1.08;;;0.80;;
45842;SDS011;31563;51.744;8.252;2023-02-28T03:35:51;1.45;;;1.02;;
45842;SDS011;31563;51.744;8.252;2023-02-28T03:38:24;2.72;;;0.80;;
45842;SDS011;31563;51.744;8.252;2023-02-28T03:40:58;3.47;;;1.13;;
45842;SDS011;31563;51.744;8.252;2023-02-28T03:43:33;1.52;;;0.88;;
45842;SDS011;31563;51.744;8.252;2023-02-28T03:46:06;1.35;;;0.75;;
45842;SDS011;31563;51.744;8.252;2023-02-28T03:48:39;2.28;;;1.02;;
45842;SDS011;31563;51.744;8.252;2023-02-28T03:51:13;1.02;;;0.70;;
45842;SDS011;31563;51.744;8.252;2023-02-28T03:53:45;0.82;;;0.73;;
45842;SDS011;31563;51.744;8.252;2023-02-28T03:56:19;1.27;;;0.50;;
45842;SDS011;31563;51.744;8.252;2023-02-28T03:58:51;0.93;;;0.75;;
45842;SDS011;31563;51.744;8.252;2023-02-28T04:01:25;1.00;;;0.55;;
45842;SDS011;31563;51.744;8.252;2023-02-28T04:03:59;1.10;;;0.68;;
45842;SDS011;31563;51.744;8.252;2023-02-28T04:06:30;1.33;;;0.70;;
45842;SDS011;31563;51.744;8.252;2023-02-28T04:09:00;1.35;;;0.80;;
45842;SDS011;31563;51.744;8.252;2023-02-28T04:11:30;1.10;;;0.60;;
45842;SDS011;31563;51.744;8.252;2023-02-28T04:14:01;1.20;;;0.70;;
45842;SDS011;31563;51.744;8.252;2023-02-28T04:16:29;1.00;;;0.68;;
45842;SDS011;31563;51.744;8.252;2023-02-28T04:19:01;2.05;;;1.00;;
45842;SDS011;31563;51.744;8.252;2023-02-28T04:24:02;1.15;;;0.70;;
45842;SDS011;31563;51.744;8.252;2023-02-28T04:26:31;1.50;;;0.70;;
45842;SDS011;31563;51.744;8.252;2023-02-28T04:29:00;2.15;;;0.70;;
45842;SDS011;31563;51.744;8.252;2023-02-28T04:31:29;1.55;;;0.60;;
45842;SDS011;31563;51.744;8.252;2023-02-28T04:33:58;1.65;;;0.77;;
45842;SDS011;31563;51.744;8.252;2023-02-28T04:36:27;1.60;;;0.60;;
45842;SDS011;31563;51.744;8.252;2023-02-28T04:38:56;1.05;;;0.60;;
45842;SDS011;31563;51.744;8.252;2023-02-28T04:41:24;0.90;;;0.50;;
45842;SDS011;31563;51.744;8.252;2023-02-28T04:43:57;1.70;;;0.50;;
45842;SDS011;31563;51.744;8.252;2023-02-28T04:46:25;0.77;;;0.68;;
45842;SDS011;31563;51.744;8.252;2023-02-28T04:48:53;0.80;;;0.55;;
45842;SDS011;31563;51.744;8.252;2023-02-28T04:51:21;0.80;;;0.50;;
45842;SDS011;31563;51.744;8.252;2023-02-28T04:53:50;0.60;;;0.50;;
45842;SDS011;31563;51.744;8.252;2023-02-28T04:56:19;0.68;;;0.50;;
45842;SDS011;31563;51.744;8.252;2023-02-28T04:58:47;0.95;;;0.63;;
45842;SDS011;31563;51.744;8.252;2023-02-28T05:01:18;0.63;;;0.60;;
45842;SDS011;31563;51.744;8.252;2023-02-28T05:03:48;0.60;;;0.55;;
45842;SDS011;31563;51.744;8.252;2023-02-28T05:06:17;0.73;;;0.55;;
45842;SDS011;31563;51.744;8.252;2023-02-28T05:08:46;1.33;;;0.50;;
45842;SDS011;31563;51.744;8.252;2023-02-28T05:11:16;0.88;;;0.55;;
45842;SDS011;31563;51.744;8.252;2023-02-28T05:13:48;0.80;;;0.50;;
45842;SDS011;31563;51.744;8.252;2023-02-28T05:16:16;1.05;;;0.40;;
45842;SDS011;31563;51.744;8.252;2023-02-28T05:18:46;1.13;;;0.70;;
45842;SDS011;31563;51.744;8.252;2023-02-28T05:21:21;0.60;;;0.43;;
45842;SDS011;31563;51.744;8.252;2023-02-28T05:23:55;1.00;;;0.50;;
45842;SDS011;31563;51.744;8.252;2023-02-28T05:26:25;2.53;;;1.10;;
45842;SDS011;31563;51.744;8.252;2023-02-28T05:28:55;2.90;;;1.45;;
45842;SDS011;31563;51.744;8.252;2023-02-28T05:31:23;2.78;;;1.55;;
45842;SDS011;31563;51.744;8.252;2023-02-28T05:33:52;1.95;;;1.38;;
45842;SDS011;31563;51.744;8.252;2023-02-28T05:36:20;1.85;;;1.65;;
45842;SDS011;31563;51.744;8.252;2023-02-28T05:38:49;2.08;;;1.30;;
45842;SDS011;31563;51.744;8.252;2023-02-28T05:41:18;2.45;;;1.67;;
45842;SDS011;31563;51.744;8.252;2023-02-28T05:43:47;2.42;;;1.70;;
45842;SDS011;31563;51.744;8.252;2023-02-28T05:46:17;3.00;;;1.70;;
45842;SDS011;31563;51.744;8.252;2023-02-28T05:48:45;3.22;;;1.52;;
45842;SDS011;31563;51.744;8.252;2023-02-28T05:51:15;2.72;;;1.98;;
45842;SDS011;31563;51.744;8.252;2023-02-28T05:53:44;3.00;;;1.95;;
45842;SDS011;31563;51.744;8.252;2023-02-28T05:56:14;2.63;;;1.98;;
45842;SDS011;31563;51.744;8.252;2023-02-28T05:58:42;2.53;;;2.08;;
45842;SDS011;31563;51.744;8.252;2023-02-28T06:01:22;2.33;;;1.88;;
45842;SDS011;31563;51.744;8.252;2023-02-28T06:03:52;2.50;;;1.65;;
45842;SDS011;31563;51.744;8.252;2023-02-28T06:06:20;3.15;;;1.50;;
45842;SDS011;31563;51.744;8.252;2023-02-28T06:08:48;3.67;;;2.22;;
45842;SDS011;31563;51.744;8.252;2023-02-28T06:11:17;3.33;;;1.77;;
45842;SDS011;31563;51.744;8.252;2023-02-28T06:13:46;2.70;;;1.63;;
45842;SDS011;31563;51.744;8.252;2023-02-28T06:16:14;3.47;;;1.95;;
45842;SDS011;31563;51.744;8.252;2023-02-28T06:18:44;2.10;;;1.40;;
45842;SDS011;31563;51.744;8.252;2023-02-28T06:21:12;2.97;;;1.55;;
45842;SDS011;31563;51.744;8.252;2023-02-28T06:23:40;1.80;;;1.30;;
45842;SDS011;31563;51.744;8.252;2023-02-28T06:26:09;1.77;;;1.17;;
45842;SDS011;31563;51.744;8.252;2023-02-28T06:28:37;1.90;;;1.23;;
45842;SDS011;31563;51.744;8.252;2023-02-28T06:31:06;2.70;;;1.40;;
45842;SDS011;31563;51.744;8.252;2023-02-28T06:33:35;2.40;;;1.20;;
45842;SDS011;31563;51.744;8.252;2023-02-28T06:36:05;2.38;;;1.50;;
45842;SDS011;31563;51.744;8.252;2023-02-28T06:38:34;5.70;;;1.70;;
45842;SDS011;31563;51.744;8.252;2023-02-28T06:41:03;2.17;;;1.20;;
45842;SDS011;31563;51.744;8.252;2023-02-28T06:43:32;1.75;;;1.02;;
45842;SDS011;31563;51.744;8.252;2023-02-28T06:46:03;1.85;;;1.15;;
45842;SDS011;31563;51.744;8.252;2023-02-28T06:48:35;1.77;;;1.13;;
45842;SDS011;31563;51.744;8.252;2023-02-28T06:51:05;2.97;;;1.20;;
45842;SDS011;31563;51.744;8.252;2023-02-28T06:53:34;1.90;;;1.17;;
45842;SDS011;31563;51.744;8.252;2023-02-28T06:56:03;1.38;;;1.00;;
45842;SDS011;31563;51.744;8.252;2023-02-28T06:58:33;3.00;;;1.20;;
45842;SDS011;31563;51.744;8.252;2023-02-28T07:01:01;1.63;;;1.30;;
45842;SDS011;31563;51.744;8.252;2023-02-28T07:03:30;1.55;;;1.08;;
45842;SDS011;31563;51.744;8.252;2023-02-28T07:05:59;1.52;;;1.00;;
45842;SDS011;31563;51.744;8.252;2023-02-28T07:08:29;2.08;;;1.10;;
45842;SDS011;31563;51.744;8.252;2023-02-28T07:10:58;1.70;;;0.88;;
45842;SDS011;31563;51.744;8.252;2023-02-28T07:13:26;1.65;;;1.30;;
45842;SDS011;31563;51.744;8.252;2023-02-28T07:15:54;1.98;;;1.33;;
45842;SDS011;31563;51.744;8.252;2023-02-28T07:18:23;2.05;;;1.10;;
45842;SDS011;31563;51.744;8.252;2023-02-28T07:20:51;1.90;;;1.20;;
45842;SDS011;31563;51.744;8.252;2023-02-28T07:23:20;2.25;;;1.27;;
45842;SDS011;31563;51.744;8.252;2023-02-28T07:25:50;1.30;;;1.10;;
45842;SDS011;31563;51.744;8.252;2023-02-28T07:28:18;2.00;;;1.10;;
45842;SDS011;31563;51.744;8.252;2023-02-28T07:30:46;1.02;;;0.93;;
45842;SDS011;31563;51.744;8.252;2023-02-28T07:33:15;0.93;;;0.80;;
45842;SDS011;31563;51.744;8.252;2023-02-28T07:35:43;1.83;;;1.15;;
45842;SDS011;31563;51.744;8.252;2023-02-28T07:38:12;1.30;;;1.20;;
45842;SDS011;31563;51.744;8.252;2023-02-28T07:40:40;1.35;;;1.02;;
45842;SDS011;31563;51.744;8.252;2023-02-28T07:43:10;1.83;;;0.90;;
45842;SDS011;31563;51.744;8.252;2023-02-28T07:45:38;1.55;;;1.02;;
45842;SDS011;31563;51.744;8.252;2023-02-28T07:48:06;1.98;;;1.10;;
45842;SDS011;31563;51.744;8.252;2023-02-28T07:53:04;1.83;;;1.08;;
45842;SDS011;31563;51.744;8.252;2023-02-28T07:55:32;1.52;;;1.08;;
45842;SDS011;31563;51.744;8.252;2023-02-28T07:58:00;1.60;;;1.00;;
45842;SDS011;31563;51.744;8.252;2023-02-28T08:00:30;1.13;;;0.90;;
45842;SDS011;31563;51.744;8.252;2023-02-28T08:02:59;1.75;;;1.02;;
45842;SDS011;31563;51.744;8.252;2023-02-28T08:05:27;1.58;;;0.93;;
45842;SDS011;31563;51.744;8.252;2023-02-28T08:07:56;1.37;;;1.10;;
45842;SDS011;31563;51.744;8.252;2023-02-28T08:10:24;2.05;;;0.82;;
45842;SDS011;31563;51.744;8.252;2023-02-28T08:12:52;1.17;;;0.70;;
45842;SDS011;31563;51.744;8.252;2023-02-28T08:15:20;2.28;;;0.73;;
45842;SDS011;31563;51.744;8.252;2023-02-28T08:17:50;1.08;;;0.70;;
45842;SDS011;31563;51.744;8.252;2023-02-28T08:20:18;2.03;;;0.75;;
45842;SDS011;31563;51.744;8.252;2023-02-28T08:22:46;1.25;;;0.80;;
45842;SDS011;31563;51.744;8.252;2023-02-28T08:25:14;1.52;;;0.80;;
45842;SDS011;31563;51.744;8.252;2023-02-28T08:27:43;1.02;;;0.70;;
45842;SDS011;31563;51.744;8.252;2023-02-28T08:30:11;1.25;;;0.70;;
45842;SDS011;31563;51.744;8.252;2023-02-28T08:32:40;1.38;;;0.60;;
45842;SDS011;31563;51.744;8.252;2023-02-28T08:35:10;1.30;;;0.70;;
45842;SDS011;31563;51.744;8.252;2023-02-28T08:37:38;1.30;;;0.60;;
45842;SDS011;31563;51.744;8.252;2023-02-28T08:40:07;0.85;;;0.70;;
45842;SDS011;31563;51.744;8.252;2023-02-28T08:42:36;2.25;;;0.80;;
45842;SDS011;31563;51.744;8.252;2023-02-28T08:45:04;1.40;;;0.73;;
45842;SDS011;31563;51.744;8.252;2023-02-28T08:47:33;1.17;;;0.80;;
45842;SDS011;31563;51.744;8.252;2023-02-28T08:50:01;1.10;;;0.52;;
45842;SDS011;31563;51.744;8.252;2023-02-28T08:52:31;1.30;;;0.80;;
45842;SDS011;31563;51.744;8.252;2023-02-28T08:54:59;1.85;;;0.77;;
45842;SDS011;31563;51.744;8.252;2023-02-28T08:57:27;0.90;;;0.70;;
45842;SDS011;31563;51.744;8.252;2023-02-28T08:59:55;3.13;;;1.00;;
45842;SDS011;31563;51.744;8.252;2023-02-28T09:02:23;2.08;;;1.08;;
45842;SDS011;31563;51.744;8.252;2023-02-28T09:04:51;3.15;;;1.23;;
45842;SDS011;31563;51.744;8.252;2023-02-28T09:07:19;2.00;;;1.10;;
45842;SDS011;31563;51.744;8.252;2023-02-28T09:09:49;7.47;;;1.40;;
45842;SDS011;31563;51.744;8.252;2023-02-28T09:12:24;4.22;;;1.50;;
45842;SDS011;31563;51.744;8.252;2023-02-28T09:14:54;4.30;;;1.20;;
45842;SDS011;31563;51.744;8.252;2023-02-28T09:17:22;3.35;;;1.20;;
45842;SDS011;31563;51.744;8.252;2023-02-28T09:19:56;5.65;;;1.50;;
45842;SDS011;31563;51.744;8.252;2023-02-28T09:22:24;3.50;;;1.45;;
45842;SDS011;31563;51.744;8.252;2023-02-28T09:24:54;4.00;;;1.88;;
45842;SDS011;31563;51.744;8.252;2023-02-28T09:27:22;6.80;;;1.42;;
45842;SDS011;31563;51.744;8.252;2023-02-28T09:29:50;2.08;;;0.85;;
45842;SDS011;31563;51.744;8.252;2023-02-28T09:32:18;2.30;;;1.38;;
45842;SDS011;31563;51.744;8.252;2023-02-28T09:34:46;2.10;;;1.23;;
45842;SDS011;31563;51.744;8.252;2023-02-28T09:37:14;2.63;;;1.00;;
45842;SDS011;31563;51.744;8.252;2023-02-28T09:39:42;2.00;;;1.00;;
45842;SDS011;31563;51.744;8.252;2023-02-28T09:42:17;1.83;;;1.00;;
45842;SDS011;31563;51.744;8.252;2023-02-28T09:44:49;2.25;;;1.02;;
45842;SDS011;31563;51.744;8.252;2023-02-28T09:47:20;2.20;;;0.83;;
45842;SDS011;31563;51.744;8.252;2023-02-28T09:49:57;1.60;;;0.87;;
45842;SDS011;31563;51.744;8.252;2023-02-28T09:52:30;3.15;;;1.02;;
45842;SDS011;31563;51.744;8.252;2023-02-28T09:57:37;1.23;;;0.82;;
45842;SDS011;31563;51.744;8.252;2023-02-28T10:00:10;2.03;;;0.80;;
45842;SDS011;31563;51.744;8.252;2023-02-28T10:05:55;1.08;;;0.55;;
45842;SDS011;31563;51.744;8.252;2023-02-28T10:08:27;1.88;;;0.55;;
45842;SDS011;31563;51.744;8.252;2023-02-28T10:11:01;1.10;;;0.45;;
45842;SDS011;31563;51.744;8.252;2023-02-28T10:13:36;1.35;;;0.60;;
45842;SDS011;31563;51.744;8.252;2023-02-28T10:16:14;2.55;;;0.75;;
45842;SDS011;31563;51.744;8.252;2023-02-28T10:18:48;1.30;;;0.70;;
45842;SDS011;31563;51.744;8.252;2023-02-28T10:21:20;0.90;;;0.50;;
45842;SDS011;31563;51.744;8.252;2023-02-28T10:23:53;0.73;;;0.50;;
45842;SDS011;31563;51.744;8.252;2023-02-28T10:26:30;1.45;;;0.47;;
45842;SDS011;31563;51.744;8.252;2023-02-28T10:29:01;0.90;;;0.50;;
45842;SDS011;31563;51.744;8.252;2023-02-28T10:31:30;0.63;;;0.40;;
45842;SDS011;31563;51.744;8.252;2023-02-28T10:33:58;1.23;;;0.60;;
45842;SDS011;31563;51.744;8.252;2023-02-28T10:36:26;1.88;;;0.70;;
45842;SDS011;31563;51.744;8.252;2023-02-28T10:38:55;1.40;;;0.57;;
45842;SDS011;31563;51.744;8.252;2023-02-28T10:41:27;0.93;;;0.50;;
45842;SDS011;31563;51.744;8.252;2023-02-28T10:44:16;1.00;;;0.60;;
45842;SDS011;31563;51.744;8.252;2023-02-28T10:46:47;1.73;;;0.50;;
45842;SDS011;31563;51.744;8.252;2023-02-28T10:49:17;1.17;;;0.50;;
45842;SDS011;31563;51.744;8.252;2023-02-28T10:51:49;0.90;;;0.50;;
45842;SDS011;31563;51.744;8.252;2023-02-28T10:54:22;1.48;;;0.55;;
45842;SDS011;31563;51.744;8.252;2023-02-28T10:57:04;1.95;;;0.60;;
45842;SDS011;31563;51.744;8.252;2023-02-28T10:59:43;1.15;;;0.52;;
45842;SDS011;31563;51.744;8.252;2023-02-28T11:02:31;1.40;;;0.60;;
45842;SDS011;31563;51.744;8.252;2023-02-28T11:05:01;1.05;;;0.55;;
45842;SDS011;31563;51.744;8.252;2023-02-28T11:07:30;0.90;;;0.50;;
45842;SDS011;31563;51.744;8.252;2023-02-28T11:10:17;0.80;;;0.50;;
45842;SDS011;31563;51.744;8.252;2023-02-28T11:12:48;1.60;;;0.47;;
45842;SDS011;31563;51.744;8.252;2023-02-28T11:15:21;1.20;;;0.40;;
45842;SDS011;31563;51.744;8.252;2023-02-28T11:17:55;0.82;;;0.50;;
45842;SDS011;31563;51.744;8.252;2023-02-28T11:20:26;0.95;;;0.30;;
45842;SDS011;31563;51.744;8.252;2023-02-28T11:22:57;1.13;;;0.50;;
45842;SDS011;31563;51.744;8.252;2023-02-28T11:25:30;1.10;;;0.52;;
45842;SDS011;31563;51.744;8.252;2023-02-28T11:27:59;0.73;;;0.57;;
45842;SDS011;31563;51.744;8.252;2023-02-28T11:30:34;1.00;;;0.45;;
45842;SDS011;31563;51.744;8.252;2023-02-28T11:33:21;0.80;;;0.50;;
45842;SDS011;31563;51.744;8.252;2023-02-28T11:35:51;0.85;;;0.20;;
45842;SDS011;31563;51.744;8.252;2023-02-28T11:38:22;0.63;;;0.30;;
45842;SDS011;31563;51.744;8.252;2023-02-28T11:40:52;0.40;;;0.20;;
45842;SDS011;31563;51.744;8.252;2023-02-28T11:43:52;1.30;;;0.40;;
45842;SDS011;31563;51.744;8.252;2023-02-28T11:46:30;0.60;;;0.30;;
45842;SDS011;31563;51.744;8.252;2023-02-28T11:49:10;0.95;;;0.50;;
45842;SDS011;31563;51.744;8.252;2023-02-28T11:51:50;0.57;;;0.40;;
45842;SDS011;31563;51.744;8.252;2023-02-28T11:54:28;0.80;;;0.50;;
45842;SDS011;31563;51.744;8.252;2023-02-28T11:57:22;0.63;;;0.30;;
45842;SDS011;31563;51.744;8.252;2023-02-28T12:00:08;0.95;;;0.40;;
45842;SDS011;31563;51.744;8.252;2023-02-28T12:02:58;0.70;;;0.35;;
45842;SDS011;31563;51.744;8.252;2023-02-28T12:05:34;0.70;;;0.30;;
45842;SDS011;31563;51.744;8.252;2023-02-28T12:08:15;0.98;;;0.40;;
45842;SDS011;31563;51.744;8.252;2023-02-28T12:10:57;0.75;;;0.43;;
45842;SDS011;31563;51.744;8.252;2023-02-28T12:13:36;0.40;;;0.22;;
45842;SDS011;31563;51.744;8.252;2023-02-28T12:16:19;0.55;;;0.30;;
45842;SDS011;31563;51.744;8.252;2023-02-28T12:24:47;1.05;;;0.30;;
45842;SDS011;31563;51.744;8.252;2023-02-28T12:27:23;0.67;;;0.40;;
45842;SDS011;31563;51.744;8.252;2023-02-28T12:29:55;0.50;;;0.28;;
45842;SDS011;31563;51.744;8.252;2023-02-28T12:32:26;0.60;;;0.32;;
45842;SDS011;31563;51.744;8.252;2023-02-28T12:35:00;0.60;;;0.30;;
45842;SDS011;31563;51.744;8.252;2023-02-28T12:37:33;0.52;;;0.30;;
45842;SDS011;31563;51.744;8.252;2023-02-28T12:40:08;0.77;;;0.30;;
45842;SDS011;31563;51.744;8.252;2023-02-28T12:42:41;0.70;;;0.40;;
45842;SDS011;31563;51.744;8.252;2023-02-28T12:45:15;0.73;;;0.30;;
45842;SDS011;31563;51.744;8.252;2023-02-28T12:47:48;0.43;;;0.20;;
45842;SDS011;31563;51.744;8.252;2023-02-28T12:50:21;0.60;;;0.30;;
45842;SDS011;31563;51.744;8.252;2023-02-28T12:52:54;0.93;;;0.45;;
45842;SDS011;31563;51.744;8.252;2023-02-28T12:55:28;0.60;;;0.32;;
45842;SDS011;31563;51.744;8.252;2023-02-28T12:58:06;0.57;;;0.30;;
45842;SDS011;31563;51.744;8.252;2023-02-28T13:00:43;0.75;;;0.30;;
45842;SDS011;31563;51.744;8.252;2023-02-28T13:06:27;1.17;;;0.40;;
45842;SDS011;31563;51.744;8.252;2023-02-28T13:09:15;2.17;;;1.38;;
45842;SDS011;31563;51.744;8.252;2023-02-28T13:14:18;2.33;;;0.70;;
45842;SDS011;31563;51.744;8.252;2023-02-28T13:17:02;1.10;;;0.50;;
45842;SDS011;31563;51.744;8.252;2023-02-28T13:19:39;1.70;;;0.88;;
45842;SDS011;31563;51.744;8.252;2023-02-28T13:22:17;2.88;;;0.60;;
45842;SDS011;31563;51.744;8.252;2023-02-28T13:24:48;1.90;;;0.50;;
45842;SDS011;31563;51.744;8.252;2023-02-28T13:38:57;3.72;;;1.10;;
45842;SDS011;31563;51.744;8.252;2023-02-28T13:44:23;3.25;;;1.23;;
45842;SDS011;31563;51.744;8.252;2023-02-28T13:52:51;1.92;;;1.27;;
45842;SDS011;31563;51.744;8.252;2023-02-28T13:55:31;2.38;;;1.30;;
45842;SDS011;31563;51.744;8.252;2023-02-28T13:58:09;1.63;;;1.10;;
45842;SDS011;31563;51.744;8.252;2023-02-28T14:01:03;1.35;;;0.93;;
45842;SDS011;31563;51.744;8.252;2023-02-28T14:03:46;2.30;;;0.90;;
45842;SDS011;31563;51.744;8.252;2023-02-28T14:06:26;1.70;;;1.05;;
45842;SDS011;31563;51.744;8.252;2023-02-28T14:09:00;2.50;;;1.30;;
45842;SDS011;31563;51.744;8.252;2023-02-28T14:11:36;1.85;;;0.90;;
45842;SDS011;31563;51.744;8.252;2023-02-28T14:14:06;1.60;;;0.70;;
45842;SDS011;31563;51.744;8.252;2023-02-28T14:19:09;0.82;;;0.52;;
45842;SDS011;31563;51.744;8.252;2023-02-28T14:21:43;1.75;;;0.70;;
45842;SDS011;31563;51.744;8.252;2023-02-28T14:24:28;3.72;;;0.70;;
45842;SDS011;31563;51.744;8.252;2023-02-28T14:27:26;1.38;;;0.55;;
45842;SDS011;31563;51.744;8.252;2023-02-28T14:30:14;1.98;;;0.40;;
45842;SDS011;31563;51.744;8.252;2023-02-28T14:33:05;1.23;;;0.40;;
45842;SDS011;31563;51.744;8.252;2023-02-28T14:36:10;1.75;;;0.80;;
45842;SDS011;31563;51.744;8.252;2023-02-28T14:38:45;1.03;;;0.60;;
45842;SDS011;31563;51.744;8.252;2023-02-28T14:41:16;0.65;;;0.40;;
45842;SDS011;31563;51.744;8.252;2023-02-28T14:43:54;0.85;;;0.50;;
45842;SDS011;31563;51.744;8.252;2023-02-28T14:46:26;2.55;;;0.45;;
45842;SDS011;31563;51.744;8.252;2023-02-28T14:49:04;2.85;;;0.35;;
45842;SDS011;31563;51.744;8.252;2023-02-28T14:51:33;1.08;;;0.30;;
45842;SDS011;31563;51.744;8.252;2023-02-28T14:54:02;1.13;;;0.50;;
45842;SDS011;31563;51.744;8.252;2023-02-28T14:56:33;0.85;;;0.40;;
45842;SDS011;31563;51.744;8.252;2023-02-28T14:59:04;0.50;;;0.22;;
45842;SDS011;31563;51.744;8.252;2023-02-28T15:01:50;1.13;;;0.30;;
45842;SDS011;31563;51.744;8.252;2023-02-28T15:04:21;1.45;;;0.57;;
45842;SDS011;31563;51.744;8.252;2023-02-28T15:09:37;1.95;;;0.30;;
45842;SDS011;31563;51.744;8.252;2023-02-28T15:12:05;0.90;;;0.40;;
45842;SDS011;31563;51.744;8.252;2023-02-28T15:14:35;1.52;;;0.20;;
45842;SDS011;31563;51.744;8.252;2023-02-28T15:17:06;0.50;;;0.28;;
45842;SDS011;31563;51.744;8.252;2023-02-28T15:19:39;0.75;;;0.43;;
45842;SDS011;31563;51.744;8.252;2023-02-28T15:22:26;1.65;;;0.22;;
45842;SDS011;31563;51.744;8.252;2023-02-28T15:24:58;1.50;;;0.47;;
45842;SDS011;31563;51.744;8.252;2023-02-28T15:27:29;0.95;;;0.50;;
45842;SDS011;31563;51.744;8.252;2023-02-28T15:30:00;0.82;;;0.25;;
45842;SDS011;31563;51.744;8.252;2023-02-28T15:32:34;0.98;;;0.30;;
45842;SDS011;31563;51.744;8.252;2023-02-28T15:35:18;0.40;;;0.20;;
45842;SDS011;31563;51.744;8.252;2023-02-28T15:42:58;0.47;;;0.20;;
45842;SDS011;31563;51.744;8.252;2023-02-28T15:45:39;0.93;;;0.43;;
45842;SDS011;31563;51.744;8.252;2023-02-28T15:48:19;0.75;;;0.40;;
45842;SDS011;31563;51.744;8.252;2023-02-28T15:50:50;2.20;;;0.73;;
45842;SDS011;31563;51.744;8.252;2023-02-28T15:53:21;2.25;;;0.73;;
45842;SDS011;31563;51.744;8.252;2023-02-28T15:55:53;3.08;;;0.70;;
45842;SDS011;31563;51.744;8.252;2023-02-28T15:58:24;5.32;;;1.30;;
45842;SDS011;31563;51.744;8.252;2023-02-28T16:01:01;10.27;;;6.70;;
45842;SDS011;31563;51.744;8.252;2023-02-28T16:03:40;6.00;;;4.30;;
45842;SDS011;31563;51.744;8.252;2023-02-28T16:06:30;6.28;;;3.72;;
45842;SDS011;31563;51.744;8.252;2023-02-28T16:09:02;5.78;;;3.20;;
45842;SDS011;31563;51.744;8.252;2023-02-28T16:11:34;5.18;;;3.00;;
45842;SDS011;31563;51.744;8.252;2023-02-28T16:14:11;5.38;;;3.00;;
45842;SDS011;31563;51.744;8.252;2023-02-28T16:16:46;5.40;;;3.15;;
45842;SDS011;31563;51.744;8.252;2023-02-28T16:19:15;3.90;;;2.90;;
45842;SDS011;31563;51.744;8.252;2023-02-28T16:21:44;3.93;;;2.57;;
45842;SDS011;31563;51.744;8.252;2023-02-28T16:24:12;5.93;;;3.60;;
45842;SDS011;31563;51.744;8.252;2023-02-28T16:26:40;3.15;;;2.60;;
45842;SDS011;31563;51.744;8.252;2023-02-28T16:29:13;4.90;;;2.63;;
45842;SDS011;31563;51.744;8.252;2023-02-28T16:31:51;4.63;;;2.60;;